sensor_id;sensor_type;location;lat;lon;timestamp;pressure;altitude;pressure_sealevel;temperature;humidity
29331;BME280;16331;52.528;13.342;2022-07-29T00:01:15;160740.63;;;18.32;100.00
29331;BME280;16331;52.528;13.342;2022-07-29T00:03:41;160740.63;;;18.32;100.00
29331;BME280;16331;52.528;13.342;2022-07-29T00:06:08;160700.59;;;18.17;100.00
29331;BME280;16331;52.528;13.342;2022-07-29T00:08:34;160740.63;;;18.32;100.00
29331;BME280;16331;52.528;13.342;2022-07-29T00:11:00;160721.28;;;18.25;100.00
29331;BME280;16331;52.528;13.342;2022-07-29T00:13:26;160657.78;;;18.02;100.00
29331;BME280;16331;52.528;13.342;2022-07-29T00:15:52;160688.16;;;18.13;100.00
29331;BME280;16331;52.528;13.342;2022-07-29T00:18:18;160671.59;;;18.07;100.00
29331;BME280;16331;52.528;13.342;2022-07-29T00:20:44;160681.22;;;18.10;100.00
29331;BME280;16331;52.528;13.342;2022-07-29T00:23:10;160637.09;;;17.94;100.00
29331;BME280;16331;52.528;13.342;2022-07-29T00:25:36;160650.84;;;17.99;100.00
29331;BME280;16331;52.528;13.342;2022-07-29T00:28:02;160661.94;;;18.03;100.00
29331;BME280;16331;52.528;13.342;2022-07-29T00:30:29;160700.59;;;18.17;100.00
29331;BME280;16331;52.528;13.342;2022-07-29T00:32:55;160678.47;;;18.09;100.00
29331;BME280;16331;52.528;13.342;2022-07-29T00:35:21;160643.97;;;17.97;100.00
29331;BME280;16331;52.528;13.342;2022-07-29T00:38:05;160663.31;;;18.04;100.00
29331;BME280;16331;52.528;13.342;2022-07-29T00:40:31;160648.09;;;17.98;100.00
29331;BME280;16331;52.528;13.342;2022-07-29T00:42:57;160598.38;;;17.80;100.00
29331;BME280;16331;52.528;13.342;2022-07-29T00:45:23;160613.59;;;17.86;100.00
29331;BME280;16331;52.528;13.342;2022-07-29T00:47:50;160602.53;;;17.82;100.00
29331;BME280;16331;52.528;13.342;2022-07-29T00:50:16;160558.34;;;17.66;100.00
29331;BME280;16331;52.528;13.342;2022-07-29T00:52:43;160570.81;;;17.70;100.00
29331;BME280;16331;52.528;13.342;2022-07-29T00:55:12;160544.59;;;17.61;100.00
29331;BME280;16331;52.528;13.342;2022-07-29T00:57:38;160539.06;;;17.59;100.00
29331;BME280;16331;52.528;13.342;2022-07-29T01:00:10;160559.75;;;17.66;100.00
29331;BME280;16331;52.528;13.342;2022-07-29T01:02:40;160565.28;;;17.68;100.00
29331;BME280;16331;52.528;13.342;2022-07-29T01:05:06;160566.63;;;17.69;100.00
29331;BME280;16331;52.528;13.342;2022-07-29T01:07:34;160534.91;;;17.57;100.00
29331;BME280;16331;52.528;13.342;2022-07-29T01:10:03;160516.97;;;17.51;100.00
29331;BME280;16331;52.528;13.342;2022-07-29T01:12:31;160569.41;;;17.70;100.00
29331;BME280;16331;52.528;13.342;2022-07-29T01:15:03;160516.97;;;17.51;100.00
29331;BME280;16331;52.528;13.342;2022-07-29T01:17:52;160534.91;;;17.57;100.00
29331;BME280;16331;52.528;13.342;2022-07-29T01:23:30;160486.56;;;17.40;100.00
29331;BME280;16331;52.528;13.342;2022-07-29T01:26:04;160511.44;;;17.49;100.00
29331;BME280;16331;52.528;13.342;2022-07-29T01:31:15;160536.25;;;17.58;100.00
29331;BME280;16331;52.528;13.342;2022-07-29T01:33:45;160547.31;;;17.62;100.00
29331;BME280;16331;52.528;13.342;2022-07-29T01:36:25;160521.09;;;17.52;100.00
29331;BME280;16331;52.528;13.342;2022-07-29T01:39:06;160457.53;;;17.29;100.00
29331;BME280;16331;52.528;13.342;2022-07-29T01:41:35;160458.94;;;17.29;100.00
29331;BME280;16331;52.528;13.342;2022-07-29T01:44:15;160467.22;;;17.32;100.00
29331;BME280;16331;52.528;13.342;2022-07-29T01:46:49;160458.94;;;17.29;100.00
29331;BME280;16331;52.528;13.342;2022-07-29T01:49:20;160432.72;;;17.20;100.00
29331;BME280;16331;52.528;13.342;2022-07-29T01:51:54;160417.53;;;17.14;100.00
29331;BME280;16331;52.528;13.342;2022-07-29T01:54:51;160428.59;;;17.18;100.00
29331;BME280;16331;52.528;13.342;2022-07-29T01:57:21;160436.84;;;17.21;100.00
29331;BME280;16331;52.528;13.342;2022-07-29T01:59:51;160420.31;;;17.15;100.00
29331;BME280;16331;52.528;13.342;2022-07-29T02:02:18;160395.44;;;17.06;100.00
29331;BME280;16331;52.528;13.342;2022-07-29T02:04:47;160398.22;;;17.07;100.00
29331;BME280;16331;52.528;13.342;2022-07-29T02:07:18;160373.38;;;16.98;100.00
29331;BME280;16331;52.528;13.342;2022-07-29T02:09:47;160354.09;;;16.91;100.00
29331;BME280;16331;52.528;13.342;2022-07-29T02:12:16;160373.38;;;16.98;100.00
29331;BME280;16331;52.528;13.342;2022-07-29T02:14:49;160417.53;;;17.14;100.00
29331;BME280;16331;52.528;13.342;2022-07-29T02:17:21;160392.69;;;17.05;100.00
29331;BME280;16331;52.528;13.342;2022-07-29T02:19:48;160442.38;;;17.23;100.00
29331;BME280;16331;52.528;13.342;2022-07-29T02:22:17;160439.59;;;17.22;100.00
29331;BME280;16331;52.528;13.342;2022-07-29T02:24:44;160416.16;;;17.14;100.00
29331;BME280;16331;52.528;13.342;2022-07-29T02:27:13;160405.09;;;17.10;100.00
29331;BME280;16331;52.528;13.342;2022-07-29T02:29:41;160395.44;;;17.06;100.00
29331;BME280;16331;52.528;13.342;2022-07-29T02:32:07;160409.25;;;17.11;100.00
29331;BME280;16331;52.528;13.342;2022-07-29T02:34:37;160439.59;;;17.22;100.00
29331;BME280;16331;52.528;13.342;2022-07-29T02:37:04;160406.50;;;17.10;100.00
29331;BME280;16331;52.528;13.342;2022-07-29T02:39:31;160366.50;;;16.96;100.00
29331;BME280;16331;52.528;13.342;2022-07-29T02:42:03;160400.97;;;17.08;100.00
29331;BME280;16331;52.528;13.342;2022-07-29T02:44:31;160450.66;;;17.26;100.00
29331;BME280;16331;52.528;13.342;2022-07-29T02:47:13;160432.72;;;17.20;100.00
29331;BME280;16331;52.528;13.342;2022-07-29T02:55:25;160420.31;;;17.15;100.00
29331;BME280;16331;52.528;13.342;2022-07-29T02:58:10;160402.38;;;17.09;100.00
29331;BME280;16331;52.528;13.342;2022-07-29T03:00:41;160471.34;;;17.34;100.00
29331;BME280;16331;52.528;13.342;2022-07-29T03:03:11;160481.03;;;17.38;100.00
29331;BME280;16331;52.528;13.342;2022-07-29T03:05:38;160383.03;;;17.02;100.00
29331;BME280;16331;52.528;13.342;2022-07-29T03:08:06;160431.31;;;17.19;100.00
29331;BME280;16331;52.528;13.342;2022-07-29T03:10:33;160461.69;;;17.30;100.00
29331;BME280;16331;52.528;13.342;2022-07-29T03:13:00;160406.50;;;17.10;100.00
29331;BME280;16331;52.528;13.342;2022-07-29T03:15:27;160431.31;;;17.19;100.00
29331;BME280;16331;52.528;13.342;2022-07-29T03:17:54;160443.72;;;17.24;100.00
29331;BME280;16331;52.528;13.342;2022-07-29T03:20:21;160373.38;;;16.98;100.00
29331;BME280;16331;52.528;13.342;2022-07-29T03:22:47;160354.09;;;16.91;100.00
29331;BME280;16331;52.528;13.342;2022-07-29T03:25:16;160356.81;;;16.92;100.00
29331;BME280;16331;52.528;13.342;2022-07-29T03:27:44;160345.81;;;16.88;100.00
29331;BME280;16331;52.528;13.342;2022-07-29T03:30:11;160351.28;;;16.90;100.00
29331;BME280;16331;52.528;13.342;2022-07-29T03:32:40;160370.63;;;16.97;100.00
29331;BME280;16331;52.528;13.342;2022-07-29T03:35:06;160356.81;;;16.92;100.00
29331;BME280;16331;52.528;13.342;2022-07-29T03:37:32;160341.69;;;16.87;100.00
29331;BME280;16331;52.528;13.342;2022-07-29T03:40:03;160359.63;;;16.93;100.00
29331;BME280;16331;52.528;13.342;2022-07-29T03:42:36;160367.88;;;16.96;100.00
29331;BME280;16331;52.528;13.342;2022-07-29T03:45:06;160314.06;;;16.77;100.00
29331;BME280;16331;52.528;13.342;2022-07-29T03:47:35;160282.34;;;16.65;100.00
29331;BME280;16331;52.528;13.342;2022-07-29T03:50:08;160301.66;;;16.72;100.00
29331;BME280;16331;52.528;13.342;2022-07-29T03:52:36;160367.88;;;16.96;100.00
29331;BME280;16331;52.528;13.342;2022-07-29T03:55:03;160334.75;;;16.84;100.00
29331;BME280;16331;52.528;13.342;2022-07-29T03:57:30;160376.16;;;16.99;100.00
29331;BME280;16331;52.528;13.342;2022-07-29T03:59:58;160378.91;;;17.00;100.00
29331;BME280;16331;52.528;13.342;2022-07-29T04:02:25;160381.69;;;17.01;100.00
29331;BME280;16331;52.528;13.342;2022-07-29T04:04:51;160385.81;;;17.03;100.00
29331;BME280;16331;52.528;13.342;2022-07-29T04:07:17;160400.97;;;17.08;100.00
29331;BME280;16331;52.528;13.342;2022-07-29T04:09:43;160414.78;;;17.13;100.00
29331;BME280;16331;52.528;13.342;2022-07-29T04:12:10;160402.38;;;17.09;100.00
29331;BME280;16331;52.528;13.342;2022-07-29T04:14:36;160387.16;;;17.03;100.00
29331;BME280;16331;52.528;13.342;2022-07-29T04:17:04;160398.22;;;17.07;100.00
29331;BME280;16331;52.528;13.342;2022-07-29T04:19:31;160337.53;;;16.85;100.00
29331;BME280;16331;52.528;13.342;2022-07-29T04:21:58;160396.84;;;17.07;100.00
29331;BME280;16331;52.528;13.342;2022-07-29T04:24:24;160387.16;;;17.03;100.00
29331;BME280;16331;52.528;13.342;2022-07-29T04:26:51;160384.44;;;17.02;100.00
29331;BME280;16331;52.528;13.342;2022-07-29T04:29:17;160370.63;;;16.97;100.00
29331;BME280;16331;52.528;13.342;2022-07-29T04:31:43;160439.59;;;17.22;100.00
29331;BME280;16331;52.528;13.342;2022-07-29T04:34:10;160468.59;;;17.33;100.00
29331;BME280;16331;52.528;13.342;2022-07-29T04:36:36;160469.94;;;17.33;100.00
29331;BME280;16331;52.528;13.342;2022-07-29T04:39:02;160464.47;;;17.31;100.00
29331;BME280;16331;52.528;13.342;2022-07-29T04:41:28;160511.44;;;17.49;100.00
29331;BME280;16331;52.528;13.342;2022-07-29T04:43:55;160552.88;;;17.64;100.00
29331;BME280;16331;52.528;13.342;2022-07-29T04:46:21;160580.44;;;17.74;100.00
29331;BME280;16331;52.528;13.342;2022-07-29T04:48:47;160505.91;;;17.47;100.00
29331;BME280;16331;52.528;13.342;2022-07-29T04:51:15;160519.72;;;17.52;100.00
29331;BME280;16331;52.528;13.342;2022-07-29T04:53:41;160555.59;;;17.65;100.00
29331;BME280;16331;52.528;13.342;2022-07-29T04:56:08;160657.78;;;18.02;100.00
29331;BME280;16331;52.528;13.342;2022-07-29T04:58:37;160671.59;;;18.07;100.00
29331;BME280;16331;52.528;13.342;2022-07-29T05:01:03;160666.06;;;18.05;100.00
29331;BME280;16331;52.528;13.342;2022-07-29T05:03:30;160642.56;;;17.96;100.00
29331;BME280;16331;52.528;13.342;2022-07-29T05:05:56;160592.91;;;17.78;100.00
29331;BME280;16331;52.528;13.342;2022-07-29T05:08:22;160646.72;;;17.98;100.00
29331;BME280;16331;52.528;13.342;2022-07-29T05:10:48;160661.94;;;18.03;100.00
29331;BME280;16331;52.528;13.342;2022-07-29T05:13:17;160696.44;;;18.16;100.00
29331;BME280;16331;52.528;13.342;2022-07-29T05:15:43;160701.97;;;18.18;100.00
29331;BME280;16331;52.528;13.342;2022-07-29T05:18:09;160722.69;;;18.25;100.00
29331;BME280;16331;52.528;13.342;2022-07-29T05:20:35;160766.94;;;18.41;100.00
29331;BME280;16331;52.528;13.342;2022-07-29T05:23:02;160907.84;;;18.93;100.00
29331;BME280;16331;52.528;13.342;2022-07-29T05:25:29;160837.38;;;18.67;100.00
29331;BME280;16331;52.528;13.342;2022-07-29T05:27:55;160758.66;;;18.38;100.00
29331;BME280;16331;52.528;13.342;2022-07-29T05:30:22;160776.63;;;18.45;100.00
29331;BME280;16331;52.528;13.342;2022-07-29T05:32:48;160809.75;;;18.57;100.00
29331;BME280;16331;52.528;13.342;2022-07-29T05:35:15;160816.69;;;18.59;100.00
29331;BME280;16331;52.528;13.342;2022-07-29T05:37:42;160801.47;;;18.54;100.00
29331;BME280;16331;52.528;13.342;2022-07-29T05:40:08;160807.00;;;18.56;100.00
29331;BME280;16331;52.528;13.342;2022-07-29T05:42:34;160800.13;;;18.53;100.00
29331;BME280;16331;52.528;13.342;2022-07-29T05:45:01;160768.34;;;18.42;100.00
29331;BME280;16331;52.528;13.342;2022-07-29T05:47:27;160834.66;;;18.66;100.00
29331;BME280;16331;52.528;13.342;2022-07-29T05:49:53;160808.41;;;18.56;100.00
29331;BME280;16331;52.528;13.342;2022-07-29T05:52:20;160889.91;;;18.86;100.00
29331;BME280;16331;52.528;13.342;2022-07-29T05:54:46;160876.06;;;18.81;100.00
29331;BME280;16331;52.528;13.342;2022-07-29T05:57:20;160988.03;;;19.22;100.00
29331;BME280;16331;52.528;13.342;2022-07-29T05:59:47;161040.59;;;19.41;100.00
29331;BME280;16331;52.528;13.342;2022-07-29T06:02:14;160993.56;;;19.24;100.00
29331;BME280;16331;52.528;13.342;2022-07-29T06:04:40;161058.59;;;19.47;100.00
29331;BME280;16331;52.528;13.342;2022-07-29T06:07:08;161064.13;;;19.49;100.00
29331;BME280;16331;52.528;13.342;2022-07-29T06:09:35;161122.16;;;19.70;98.63
29331;BME280;16331;52.528;13.342;2022-07-29T06:12:02;161141.53;;;19.77;98.90
29331;BME280;16331;52.528;13.342;2022-07-29T06:14:31;161219.03;;;20.05;95.82
29331;BME280;16331;52.528;13.342;2022-07-29T06:16:58;161320.06;;;20.42;94.14
29331;BME280;16331;52.528;13.342;2022-07-29T06:19:24;161354.66;;;20.55;91.35
29331;BME280;16331;52.528;13.342;2022-07-29T06:21:51;161367.09;;;20.59;91.74
29331;BME280;16331;52.528;13.342;2022-07-29T06:24:17;161333.91;;;20.47;91.35
29331;BME280;16331;52.528;13.342;2022-07-29T06:26:43;161239.75;;;20.13;92.92
29331;BME280;16331;52.528;13.342;2022-07-29T06:29:10;161203.78;;;20.00;93.87
29331;BME280;16331;52.528;13.342;2022-07-29T06:31:39;161239.75;;;20.13;93.24
29331;BME280;16331;52.528;13.342;2022-07-29T06:34:06;161214.81;;;20.04;94.27
29331;BME280;16331;52.528;13.342;2022-07-29T06:36:37;161303.41;;;20.36;92.90
29331;BME280;16331;52.528;13.342;2022-07-29T06:39:07;161232.81;;;20.10;94.01
29331;BME280;16331;52.528;13.342;2022-07-29T06:41:34;161252.25;;;20.18;93.51
29331;BME280;16331;52.528;13.342;2022-07-29T06:44:01;161282.69;;;20.29;91.72
29331;BME280;16331;52.528;13.342;2022-07-29T06:46:27;161302.06;;;20.36;91.92
29331;BME280;16331;52.528;13.342;2022-07-29T06:48:53;161304.81;;;20.37;92.57
29331;BME280;16331;52.528;13.342;2022-07-29T06:51:20;161356.03;;;20.55;90.89
29331;BME280;16331;52.528;13.342;2022-07-29T06:53:46;161382.34;;;20.65;90.54
29331;BME280;16331;52.528;13.342;2022-07-29T06:56:12;161476.47;;;20.99;88.52
29331;BME280;16331;52.528;13.342;2022-07-29T06:58:40;161412.78;;;20.76;89.46
29331;BME280;16331;52.528;13.342;2022-07-29T07:01:06;161425.22;;;20.80;88.82
29331;BME280;16331;52.528;13.342;2022-07-29T07:03:33;161484.78;;;21.02;87.63
29331;BME280;16331;52.528;13.342;2022-07-29T07:05:59;161387.84;;;20.67;90.00
29331;BME280;16331;52.528;13.342;2022-07-29T07:08:27;161559.53;;;21.29;86.24
29331;BME280;16331;52.528;13.342;2022-07-29T07:10:53;161685.56;;;21.75;83.65
29331;BME280;16331;52.528;13.342;2022-07-29T07:13:20;161709.19;;;21.83;81.38
29331;BME280;16331;52.528;13.342;2022-07-29T07:15:48;161785.34;;;22.11;79.35
29331;BME280;16331;52.528;13.342;2022-07-29T07:18:17;161663.41;;;21.67;82.00
29331;BME280;16331;52.528;13.342;2022-07-29T07:20:44;161785.34;;;22.11;79.47
29331;BME280;16331;52.528;13.342;2022-07-29T07:23:18;161717.50;;;21.86;81.97
29331;BME280;16331;52.528;13.342;2022-07-29T07:25:44;161648.16;;;21.61;82.89
29331;BME280;16331;52.528;13.342;2022-07-29T07:28:11;161746.56;;;21.97;80.99
29331;BME280;16331;52.528;13.342;2022-07-29T07:30:37;161782.59;;;22.10;79.09
29331;BME280;16331;52.528;13.342;2022-07-29T07:33:04;161849.13;;;22.34;79.26
29331;BME280;16331;52.528;13.342;2022-07-29T07:35:31;161860.16;;;22.38;76.82
29331;BME280;16331;52.528;13.342;2022-07-29T07:37:57;161844.97;;;22.32;77.45
29331;BME280;16331;52.528;13.342;2022-07-29T07:40:27;161950.34;;;22.70;75.43
29331;BME280;16331;52.528;13.342;2022-07-29T07:42:54;162041.81;;;23.04;72.52
29331;BME280;16331;52.528;13.342;2022-07-29T07:45:22;162068.16;;;23.13;70.46
29331;BME280;16331;52.528;13.342;2022-07-29T07:47:48;162048.78;;;23.06;70.13
29331;BME280;16331;52.528;13.342;2022-07-29T07:50:14;161994.69;;;22.86;70.85
29331;BME280;16331;52.528;13.342;2022-07-29T07:52:52;162087.59;;;23.20;70.09
29331;BME280;16331;52.528;13.342;2022-07-29T07:55:20;162094.50;;;23.23;68.59
29331;BME280;16331;52.528;13.342;2022-07-29T07:57:47;162272.13;;;23.87;64.38
29331;BME280;16331;52.528;13.342;2022-07-29T08:00:16;162297.13;;;23.96;61.89
29331;BME280;16331;52.528;13.342;2022-07-29T08:02:42;162376.28;;;24.24;59.99
29331;BME280;16331;52.528;13.342;2022-07-29T08:05:09;162469.28;;;24.58;58.85
29331;BME280;16331;52.528;13.342;2022-07-29T08:07:36;162317.97;;;24.03;61.56
29331;BME280;16331;52.528;13.342;2022-07-29T08:10:02;162295.72;;;23.95;61.20
29331;BME280;16331;52.528;13.342;2022-07-29T08:12:28;162333.22;;;24.09;61.18
29331;BME280;16331;52.528;13.342;2022-07-29T08:14:54;162399.84;;;24.33;60.52
29331;BME280;16331;52.528;13.342;2022-07-29T08:17:21;162452.63;;;24.52;56.14
29331;BME280;16331;52.528;13.342;2022-07-29T08:19:50;162440.09;;;24.48;54.70
29331;BME280;16331;52.528;13.342;2022-07-29T08:22:16;162460.94;;;24.55;54.85
29331;BME280;16331;52.528;13.342;2022-07-29T08:24:42;162477.59;;;24.61;54.64
29331;BME280;16331;52.528;13.342;2022-07-29T08:27:09;162563.69;;;24.92;54.42
29331;BME280;16331;52.528;13.342;2022-07-29T08:29:38;162602.63;;;25.06;51.96
29331;BME280;16331;52.528;13.342;2022-07-29T08:32:05;162630.38;;;25.16;51.60
29331;BME280;16331;52.528;13.342;2022-07-29T08:34:31;162695.75;;;25.40;50.40
29331;BME280;16331;52.528;13.342;2022-07-29T08:36:58;162619.28;;;25.12;50.81
29331;BME280;16331;52.528;13.342;2022-07-29T08:39:24;162626.19;;;25.15;51.37
29331;BME280;16331;52.528;13.342;2022-07-29T08:41:51;162724.88;;;25.50;49.08
29331;BME280;16331;52.528;13.342;2022-07-29T08:44:18;162748.53;;;25.59;48.95
29331;BME280;16331;52.528;13.342;2022-07-29T08:46:45;162774.91;;;25.69;48.47
29331;BME280;16331;52.528;13.342;2022-07-29T08:49:11;162748.53;;;25.59;49.59
29331;BME280;16331;52.528;13.342;2022-07-29T08:51:40;162833.28;;;25.90;47.60
29331;BME280;16331;52.528;13.342;2022-07-29T08:54:09;162713.81;;;25.46;48.51
29331;BME280;16331;52.528;13.342;2022-07-29T08:56:35;162615.13;;;25.11;50.88
29331;BME280;16331;52.528;13.342;2022-07-29T08:59:06;162598.47;;;25.05;50.31
29331;BME280;16331;52.528;13.342;2022-07-29T09:01:34;162599.81;;;25.05;50.63
29331;BME280;16331;52.528;13.342;2022-07-29T09:04:08;162670.66;;;25.31;48.97
29331;BME280;16331;52.528;13.342;2022-07-29T09:06:39;162612.31;;;25.10;48.93
29331;BME280;16331;52.528;13.342;2022-07-29T09:09:08;162647.06;;;25.22;48.81
29331;BME280;16331;52.528;13.342;2022-07-29T09:11:34;162669.28;;;25.30;48.92
29331;BME280;16331;52.528;13.342;2022-07-29T09:14:00;162752.69;;;25.60;48.89
29331;BME280;16331;52.528;13.342;2022-07-29T09:16:47;162824.97;;;25.87;46.41
29331;BME280;16331;52.528;13.342;2022-07-29T09:19:31;162951.47;;;26.32;45.74
29331;BME280;16331;52.528;13.342;2022-07-29T09:22:02;162886.16;;;26.09;46.05
29331;BME280;16331;52.528;13.342;2022-07-29T09:24:42;162919.47;;;26.21;45.82
29331;BME280;16331;52.528;13.342;2022-07-29T09:27:10;162952.88;;;26.33;45.86
29331;BME280;16331;52.528;13.342;2022-07-29T09:29:37;162886.16;;;26.09;45.84
29331;BME280;16331;52.528;13.342;2022-07-29T09:32:08;162868.06;;;26.02;44.70
29331;BME280;16331;52.528;13.342;2022-07-29T09:34:35;162812.41;;;25.82;45.83
29331;BME280;16331;52.528;13.342;2022-07-29T09:37:01;162831.88;;;25.89;44.87
29331;BME280;16331;52.528;13.342;2022-07-29T09:39:41;162842.97;;;25.93;44.01
29331;BME280;16331;52.528;13.342;2022-07-29T09:42:12;162862.50;;;26.00;44.26
29331;BME280;16331;52.528;13.342;2022-07-29T09:44:46;162865.25;;;26.01;43.31
29331;BME280;16331;52.528;13.342;2022-07-29T09:47:14;162913.91;;;26.19;42.36
29331;BME280;16331;52.528;13.342;2022-07-29T09:49:54;162891.66;;;26.11;42.37
29331;BME280;16331;52.528;13.342;2022-07-29T09:52:20;162926.47;;;26.23;42.54
29331;BME280;16331;52.528;13.342;2022-07-29T09:54:47;162923.66;;;26.22;43.20
29331;BME280;16331;52.528;13.342;2022-07-29T09:57:27;162930.63;;;26.25;42.18
29331;BME280;16331;52.528;13.342;2022-07-29T10:00:12;163020.97;;;26.57;41.90
29331;BME280;16331;52.528;13.342;2022-07-29T10:02:40;163036.28;;;26.63;41.23
29331;BME280;16331;52.528;13.342;2022-07-29T10:07:50;163020.97;;;26.57;41.13
29331;BME280;16331;52.528;13.342;2022-07-29T10:10:25;163002.88;;;26.51;40.79
29331;BME280;16331;52.528;13.342;2022-07-29T10:13:12;163039.03;;;26.64;41.27
29331;BME280;16331;52.528;13.342;2022-07-29T10:15:40;163147.59;;;27.03;39.17
29331;BME280;16331;52.528;13.342;2022-07-29T10:18:09;163153.16;;;27.05;39.76
29331;BME280;16331;52.528;13.342;2022-07-29T10:20:45;163204.59;;;27.24;40.21
29331;BME280;16331;52.528;13.342;2022-07-29T10:26:03;163214.41;;;27.27;38.53
29331;BME280;16331;52.528;13.342;2022-07-29T10:28:33;163197.66;;;27.21;37.79
29331;BME280;16331;52.528;13.342;2022-07-29T10:31:03;163179.56;;;27.15;38.32
29331;BME280;16331;52.528;13.342;2022-07-29T10:38:55;163214.41;;;27.27;38.14
29331;BME280;16331;52.528;13.342;2022-07-29T10:41:37;163455.19;;;28.14;36.75
29331;BME280;16331;52.528;13.342;2022-07-29T10:44:21;163593.03;;;28.64;36.18
29331;BME280;16331;52.528;13.342;2022-07-29T10:46:54;163559.63;;;28.52;35.37
29331;BME280;16331;52.528;13.342;2022-07-29T10:49:21;163598.63;;;28.66;35.07
29331;BME280;16331;52.528;13.342;2022-07-29T10:52:04;163569.41;;;28.55;35.55
29331;BME280;16331;52.528;13.342;2022-07-29T10:54:41;163476.06;;;28.21;35.39
29331;BME280;16331;52.528;13.342;2022-07-29T10:57:28;163292.28;;;27.55;36.39
29331;BME280;16331;52.528;13.342;2022-07-29T11:05:03;163594.44;;;28.64;35.37
29331;BME280;16331;52.528;13.342;2022-07-29T11:07:32;163568.00;;;28.55;35.62
29331;BME280;16331;52.528;13.342;2022-07-29T11:15:05;163318.72;;;27.65;36.67
29331;BME280;16331;52.528;13.342;2022-07-29T11:20:42;163467.72;;;28.18;36.35
29331;BME280;16331;52.528;13.342;2022-07-29T11:23:34;163746.31;;;29.19;34.77
29331;BME280;16331;52.528;13.342;2022-07-29T11:29:06;163726.78;;;29.12;34.98
29331;BME280;16331;52.528;13.342;2022-07-29T11:31:43;163920.56;;;29.82;34.17
29331;BME280;16331;52.528;13.342;2022-07-29T11:34:25;163899.66;;;29.74;34.28
29331;BME280;16331;52.528;13.342;2022-07-29T11:39:47;164178.53;;;30.74;32.40
29331;BME280;16331;52.528;13.342;2022-07-29T11:45:05;164331.97;;;31.30;31.56
29331;BME280;16331;52.528;13.342;2022-07-29T11:47:34;164440.88;;;31.69;31.51
29331;BME280;16331;52.528;13.342;2022-07-29T11:50:03;164390.63;;;31.51;31.47
29331;BME280;16331;52.528;13.342;2022-07-29T11:52:40;164477.19;;;31.82;31.58
29331;BME280;16331;52.528;13.342;2022-07-29T11:55:13;164562.38;;;32.12;31.38
29331;BME280;16331;52.528;13.342;2022-07-29T11:58:00;164570.75;;;32.15;31.41
29331;BME280;16331;52.528;13.342;2022-07-29T12:00:36;164419.97;;;31.61;32.19
29331;BME280;16331;52.528;13.342;2022-07-29T12:03:08;164583.31;;;32.20;31.58
29331;BME280;16331;52.528;13.342;2022-07-29T12:05:42;164473.00;;;31.80;31.99
29331;BME280;16331;52.528;13.342;2022-07-29T12:10:36;164773.25;;;32.88;30.79
29331;BME280;16331;52.528;13.342;2022-07-29T12:13:03;164607.06;;;32.28;31.93
29331;BME280;16331;52.528;13.342;2022-07-29T12:15:29;164477.19;;;31.82;32.51
29331;BME280;16331;52.528;13.342;2022-07-29T12:17:55;164657.34;;;32.47;31.77
29331;BME280;16331;52.528;13.342;2022-07-29T12:20:27;164718.81;;;32.69;31.36
29331;BME280;16331;52.528;13.342;2022-07-29T12:22:54;164812.47;;;33.02;31.38
29331;BME280;16331;52.528;13.342;2022-07-29T12:25:22;164910.25;;;33.37;31.03
29331;BME280;16331;52.528;13.342;2022-07-29T12:28:02;164871.09;;;33.23;31.24
29331;BME280;16331;52.528;13.342;2022-07-29T12:30:46;164843.19;;;33.13;31.48
29331;BME280;16331;52.528;13.342;2022-07-29T12:33:25;164882.28;;;33.27;31.07
29331;BME280;16331;52.528;13.342;2022-07-29T12:36:00;164776.13;;;32.89;31.77
29331;BME280;16331;52.528;13.342;2022-07-29T12:38:29;165097.63;;;34.05;30.26
29331;BME280;16331;52.528;13.342;2022-07-29T12:40:57;164703.44;;;32.63;32.06
29331;BME280;16331;52.528;13.342;2022-07-29T12:43:25;165050.00;;;33.88;30.54
29331;BME280;16331;52.528;13.342;2022-07-29T12:45:55;165405.34;;;35.15;28.75
29331;BME280;16331;52.528;13.342;2022-07-29T12:48:42;165296.19;;;34.76;28.94
29331;BME280;16331;52.528;13.342;2022-07-29T12:51:25;164745.34;;;32.78;31.12
29331;BME280;16331;52.528;13.342;2022-07-29T12:54:03;164749.53;;;32.80;31.53
29331;BME280;16331;52.528;13.342;2022-07-29T12:56:30;164899.03;;;33.33;30.74
29331;BME280;16331;52.528;13.342;2022-07-29T12:58:56;164988.53;;;33.65;30.36
29331;BME280;16331;52.528;13.342;2022-07-29T13:01:24;165020.66;;;33.77;30.23
29331;BME280;16331;52.528;13.342;2022-07-29T13:06:44;165356.41;;;34.97;28.65
29331;BME280;16331;52.528;13.342;2022-07-29T13:09:19;165072.41;;;33.96;30.06
29331;BME280;16331;52.528;13.342;2022-07-29T13:11:48;164897.63;;;33.33;31.32
29331;BME280;16331;52.528;13.342;2022-07-29T13:17:07;164594.44;;;32.24;31.99
29331;BME280;16331;52.528;13.342;2022-07-29T13:19:50;164735.56;;;32.75;31.37
29331;BME280;16331;52.528;13.342;2022-07-29T13:22:21;165273.78;;;34.68;28.80
29331;BME280;16331;52.528;13.342;2022-07-29T13:24:49;165020.66;;;33.77;30.10
29331;BME280;16331;52.528;13.342;2022-07-29T13:27:20;165106.00;;;34.08;29.88
29331;BME280;16331;52.528;13.342;2022-07-29T13:29:46;165416.50;;;35.19;28.88
29331;BME280;16331;52.528;13.342;2022-07-29T13:32:15;165212.28;;;34.46;28.83
29331;BME280;16331;52.528;13.342;2022-07-29T13:34:41;165408.13;;;35.16;28.38
29331;BME280;16331;52.528;13.342;2022-07-29T13:37:07;165679.69;;;36.13;27.68
29331;BME280;16331;52.528;13.342;2022-07-29T13:39:33;165494.94;;;35.47;27.88